createdAt,value
2019-04-03T00:02:04.329Z,8.10
2019-04-03T00:07:11.627Z,8.00
2019-04-03T00:12:18.427Z,8.00
2019-04-03T00:17:25.034Z,7.90
2019-04-03T00:22:31.635Z,8.00
2019-04-03T00:27:38.195Z,8.10
2019-04-03T00:32:44.905Z,8.00
2019-04-03T00:37:53.622Z,7.90
2019-04-03T00:42:59.810Z,8.00
2019-04-03T00:48:06.719Z,8.00
2019-04-03T00:53:13.264Z,7.80
2019-04-03T00:58:36.019Z,7.80
2019-04-03T01:03:42.943Z,7.90
2019-04-03T01:08:49.553Z,7.90
2019-04-03T01:13:56.115Z,8.00
2019-04-03T01:19:05.238Z,8.10
2019-04-03T01:24:11.111Z,8.10
2019-04-03T01:29:17.805Z,8.20
2019-04-03T01:34:24.401Z,8.10
2019-04-03T01:39:30.951Z,8.10
2019-04-03T01:44:37.572Z,8.20
2019-04-03T01:49:44.186Z,8.10
2019-04-03T01:54:50.647Z,8.00
2019-04-03T01:59:57.050Z,7.90
2019-04-03T02:05:04.055Z,7.80
2019-04-03T02:10:18.891Z,7.80
2019-04-03T02:15:25.590Z,7.70
2019-04-03T02:20:32.237Z,7.60
2019-04-03T02:25:38.737Z,7.40
2019-04-03T02:30:46.901Z,7.20
2019-04-03T02:35:54.523Z,7.10
2019-04-03T02:41:03.463Z,7.00
2019-04-03T02:46:09.624Z,7.10
2019-04-03T02:51:18.923Z,7.10
2019-04-03T02:56:24.918Z,7.10
2019-04-03T03:01:31.472Z,7.20
2019-04-03T03:06:38.083Z,7.50
2019-04-03T03:11:44.721Z,7.60
2019-04-03T03:16:52.616Z,7.60
2019-04-03T03:22:03.605Z,7.80
2019-04-03T03:27:11.415Z,8.00
2019-04-03T03:32:28.543Z,8.00
2019-04-03T03:37:27.810Z,8.20
2019-04-03T03:42:35.939Z,8.30
2019-04-03T03:47:44.461Z,8.30
2019-04-03T03:52:51.624Z,8.30
2019-04-03T03:58:00.429Z,8.20
2019-04-03T04:03:10.088Z,8.00
2019-04-03T04:08:15.863Z,8.00
2019-04-03T04:13:22.481Z,7.90
2019-04-03T04:18:29.190Z,7.90
2019-04-03T04:23:36.687Z,7.70
2019-04-03T04:28:43.736Z,7.60
2019-04-03T04:33:50.280Z,7.50
2019-04-03T04:38:57.944Z,7.50
2019-04-03T04:44:05.204Z,7.40
2019-04-03T04:49:12.728Z,7.50
2019-04-03T04:54:19.503Z,7.40
2019-04-03T04:59:26.078Z,7.40
2019-04-03T05:04:32.696Z,7.40
2019-04-03T05:09:40.312Z,7.40
2019-04-03T05:14:48.778Z,7.30
2019-04-03T05:19:55.365Z,7.30
2019-04-03T05:25:03.088Z,7.30
2019-04-03T05:30:10.258Z,7.40
2019-04-03T05:35:17.078Z,7.50
2019-04-03T05:40:25.646Z,7.60
2019-04-03T05:45:34.488Z,7.70
2019-04-03T05:50:41.146Z,7.90
2019-04-03T05:55:47.787Z,8.00
2019-04-03T06:01:04.146Z,8.10
2019-04-03T06:06:02.517Z,8.20
2019-04-03T06:11:09.720Z,8.30
2019-04-03T06:16:17.167Z,8.50
2019-04-03T06:21:24.157Z,8.70
2019-04-03T06:26:30.810Z,8.80
2019-04-03T06:31:37.500Z,8.90
2019-04-03T06:36:44.155Z,9.00
2019-04-03T06:41:50.691Z,9.20
2019-04-03T06:46:58.726Z,9.50
2019-04-03T06:52:05.865Z,9.70
2019-04-03T06:57:13.867Z,9.70
2019-04-03T07:02:20.619Z,9.90
2019-04-03T07:07:34.210Z,10.20
2019-04-03T07:12:35.674Z,10.30
2019-04-03T07:17:42.439Z,10.60
2019-04-03T07:22:49.140Z,10.90
2019-04-03T07:27:55.723Z,11.00
2019-04-03T07:33:05.051Z,11.20
2019-04-03T07:38:10.620Z,11.50
2019-04-03T07:43:17.253Z,11.70
2019-04-03T07:48:23.966Z,12.00
2019-04-03T07:53:30.526Z,12.20
2019-04-03T07:58:37.451Z,12.70
2019-04-03T08:03:44.188Z,13.40
2019-04-03T08:09:05.351Z,13.90
2019-04-03T08:13:59.073Z,14.00
2019-04-03T08:19:08.155Z,14.00
2019-04-03T08:24:14.076Z,14.20
2019-04-03T08:29:21.026Z,14.60
2019-04-03T08:34:30.689Z,14.70
2019-04-03T08:39:36.586Z,14.70
2019-04-03T08:44:43.316Z,14.90
2019-04-03T08:49:50.117Z,15.20
2019-04-03T08:54:56.844Z,15.10
2019-04-03T09:00:03.397Z,15.40
2019-04-03T09:05:14.123Z,15.50
2019-04-03T09:10:20.782Z,15.70
2019-04-03T09:15:28.318Z,16.10
2019-04-03T09:20:36.025Z,16.10
2019-04-03T09:25:42.891Z,16.50
2019-04-03T09:30:49.749Z,16.50
2019-04-03T09:35:59.550Z,17.10
2019-04-03T09:41:05.878Z,17.50
2019-04-03T09:46:12.551Z,17.80
2019-04-03T09:51:21.903Z,17.40
2019-04-03T09:56:27.772Z,17.40
2019-04-03T10:01:34.485Z,17.30
2019-04-03T10:06:41.071Z,17.50
2019-04-03T10:11:50.589Z,17.50
2019-04-03T10:16:56.170Z,17.50
2019-04-03T10:22:03.014Z,17.50
2019-04-03T10:27:11.219Z,17.50
2019-04-03T10:32:19.271Z,17.20
2019-04-03T10:37:25.900Z,17.20
2019-04-03T10:42:32.747Z,17.20
2019-04-03T10:47:43.387Z,17.20
2019-04-03T10:52:48.733Z,17.40
2019-04-03T10:57:56.393Z,17.40
2019-04-03T11:03:03.116Z,17.60
2019-04-03T11:08:09.764Z,18.00
2019-04-03T11:13:16.597Z,18.20
2019-04-03T11:18:23.881Z,18.50
2019-04-03T11:23:40.058Z,18.50
2019-04-03T11:28:39.157Z,18.60
2019-04-03T11:33:50.134Z,18.90
2019-04-03T11:39:10.519Z,18.40
2019-04-03T11:44:04.020Z,18.40
2019-04-03T11:49:10.630Z,19.30
2019-04-03T11:54:17.411Z,19.80
2019-04-03T11:59:24.462Z,19.40
2019-04-03T12:04:31.546Z,20.00
2019-04-03T12:09:38.149Z,19.80
2019-04-03T12:14:44.885Z,20.30
2019-04-03T12:19:51.546Z,20.30
2019-04-03T12:24:58.089Z,20.20
2019-04-03T12:30:06.532Z,20.30
2019-04-03T12:35:13.937Z,20.30
2019-04-03T12:40:21.513Z,19.80
2019-04-03T12:45:28.367Z,20.00
2019-04-03T12:50:35.130Z,20.10
2019-04-03T12:55:43.023Z,20.50
2019-04-03T13:00:50.327Z,20.80
2019-04-03T13:05:59.580Z,20.70
2019-04-03T13:11:06.318Z,21.10
2019-04-03T13:16:12.984Z,20.80
2019-04-03T13:21:19.692Z,21.10
2019-04-03T13:26:26.467Z,21.20
2019-04-03T13:31:33.150Z,21.40
2019-04-03T13:36:39.930Z,21.10
2019-04-03T13:41:46.573Z,20.70
2019-04-03T13:46:53.382Z,21.20
2019-04-03T13:52:05.482Z,21.80
2019-04-03T13:57:08.522Z,21.80
2019-04-03T14:02:15.269Z,22.10
2019-04-03T14:07:22.182Z,22.20
2019-04-03T14:12:29.787Z,22.30
2019-04-03T14:17:37.161Z,22.50
2019-04-03T14:22:44.103Z,22.60
2019-04-03T14:27:51.127Z,22.30
2019-04-03T14:32:58.536Z,21.90
2019-04-03T14:38:11.587Z,20.90
2019-04-03T14:43:17.429Z,20.40
2019-04-03T14:48:26.132Z,19.90
2019-04-03T14:53:32.422Z,19.80
2019-04-03T14:58:39.395Z,19.40
2019-04-03T15:03:46.008Z,19.10
2019-04-03T15:08:54.696Z,18.70
2019-04-03T15:14:00.939Z,18.60
2019-04-03T15:19:08.387Z,18.50
2019-04-03T15:24:15.342Z,18.60
2019-04-03T15:29:22.571Z,18.50
2019-04-03T15:34:29.531Z,18.50
2019-04-03T15:39:36.716Z,18.50
2019-04-03T15:44:43.476Z,18.70
2019-04-03T15:49:50.116Z,18.60
2019-04-03T15:54:56.690Z,18.80
2019-04-03T16:00:03.673Z,18.90
2019-04-03T16:05:10.783Z,19.20
2019-04-03T16:10:17.455Z,19.20
2019-04-03T16:15:24.624Z,19.10
2019-04-03T16:20:31.397Z,18.90
2019-04-03T16:25:38.185Z,18.90
2019-04-03T16:30:52.408Z,18.40
2019-04-03T16:35:57.587Z,18.10
2019-04-03T16:41:07.903Z,17.80
2019-04-03T16:46:15.174Z,17.80
2019-04-03T16:51:22.369Z,17.60
2019-04-03T16:56:29.293Z,17.50
2019-04-03T17:01:37.359Z,17.20
2019-04-03T17:06:47.587Z,16.90
2019-04-03T17:11:55.046Z,16.80
2019-04-03T17:17:01.949Z,16.50
2019-04-03T17:22:09.891Z,16.30
2019-04-03T17:27:16.683Z,16.20
2019-04-03T17:32:29.959Z,16.10
2019-04-03T17:37:38.143Z,15.90
2019-04-03T17:42:45.025Z,15.80
2019-04-03T17:47:53.865Z,15.50
2019-04-03T17:53:00.585Z,15.30
2019-04-03T17:58:09.947Z,15.00
2019-04-03T18:03:19.363Z,14.90
2019-04-03T18:08:24.869Z,14.80
2019-04-03T18:13:31.477Z,14.60
2019-04-03T18:18:38.147Z,14.50
2019-04-03T18:23:44.809Z,14.30
2019-04-03T18:28:51.509Z,14.30
2019-04-03T18:33:58.155Z,14.10
2019-04-03T18:39:09.708Z,14.00
2019-04-03T18:44:21.943Z,13.90
2019-04-03T18:49:24.602Z,13.90
2019-04-03T18:54:31.117Z,13.80
2019-04-03T18:59:37.685Z,13.70
2019-04-03T19:04:44.222Z,13.70
2019-04-03T19:09:51.824Z,13.70
2019-04-03T19:15:02.534Z,13.60
2019-04-03T19:20:11.403Z,13.50
2019-04-03T19:25:19.347Z,13.30
2019-04-03T19:30:28.475Z,13.20
2019-04-03T19:35:34.373Z,13.30
2019-04-03T19:40:41.193Z,13.70
2019-04-03T19:45:51.429Z,13.80
2019-04-03T19:50:56.636Z,13.70
2019-04-03T19:56:03.266Z,13.70
2019-04-03T20:01:09.957Z,13.70
2019-04-03T20:06:16.449Z,13.60
2019-04-03T20:11:23.196Z,13.50
2019-04-03T20:16:31.739Z,13.50
2019-04-03T20:21:38.371Z,13.50
2019-04-03T20:26:46.674Z,13.40
2019-04-03T20:31:53.391Z,13.20
2019-04-03T20:37:00.010Z,13.20
2019-04-03T20:42:08.099Z,13.10
2019-04-03T20:47:14.906Z,13.10
2019-04-03T20:52:21.391Z,13.00
2019-04-03T20:57:28.025Z,12.90
2019-04-03T21:02:34.570Z,12.80
2019-04-03T21:07:41.209Z,12.70
2019-04-03T21:12:47.826Z,12.60
2019-04-03T21:17:54.369Z,12.60
2019-04-03T21:23:02.900Z,12.60
2019-04-03T21:28:10.886Z,12.50
2019-04-03T21:33:17.631Z,12.40
2019-04-03T21:38:24.197Z,12.30
2019-04-03T21:43:30.855Z,12.40
2019-04-03T21:48:37.491Z,12.40
2019-04-03T21:53:43.877Z,12.40
2019-04-03T21:58:50.331Z,12.30
2019-04-03T22:03:56.901Z,12.30
2019-04-03T22:09:04.560Z,12.20
2019-04-03T22:14:11.707Z,12.20
2019-04-03T22:19:18.458Z,12.20
2019-04-03T22:24:25.007Z,12.10
2019-04-03T22:29:31.659Z,12.10
2019-04-03T22:34:38.202Z,12.00
2019-04-03T22:39:44.707Z,11.90
2019-04-03T22:44:51.115Z,11.80
2019-04-03T22:49:57.665Z,11.70
2019-04-03T22:55:04.433Z,11.60
2019-04-03T23:00:11.249Z,11.40
2019-04-03T23:05:17.864Z,11.30
2019-04-03T23:10:24.917Z,11.20
2019-04-03T23:15:31.477Z,11.00
2019-04-03T23:20:39.091Z,10.90
2019-04-03T23:25:45.714Z,10.80
2019-04-03T23:30:52.278Z,10.70
2019-04-03T23:35:58.901Z,10.60
2019-04-03T23:41:06.148Z,10.60
2019-04-03T23:46:14.746Z,10.60
2019-04-03T23:51:23.348Z,10.50
2019-04-03T23:56:31.096Z,10.50
